sensor_id;sensor_type;location;lat;lon;timestamp;P1;durP1;ratioP1;P2;durP2;ratioP2
14098;SDS011;7126;48.458;7.930;2023-03-17T00:00:14;0.40;;;0.40;;
14098;SDS011;7126;48.458;7.930;2023-03-17T00:02:41;1.55;;;0.40;;
14098;SDS011;7126;48.458;7.930;2023-03-17T00:05:21;0.88;;;0.88;;
14098;SDS011;7126;48.458;7.930;2023-03-17T00:07:48;0.70;;;0.70;;
14098;SDS011;7126;48.458;7.930;2023-03-17T00:10:17;0.90;;;0.90;;
14098;SDS011;7126;48.458;7.930;2023-03-17T00:12:48;0.20;;;0.20;;
14098;SDS011;7126;48.458;7.930;2023-03-17T00:15:15;0.60;;;0.60;;
14098;SDS011;7126;48.458;7.930;2023-03-17T00:17:41;0.22;;;0.22;;
14098;SDS011;7126;48.458;7.930;2023-03-17T00:20:12;0.28;;;0.28;;
14098;SDS011;7126;48.458;7.930;2023-03-17T00:22:49;0.30;;;0.30;;
14098;SDS011;7126;48.458;7.930;2023-03-17T00:25:19;0.93;;;0.93;;
14098;SDS011;7126;48.458;7.930;2023-03-17T00:27:49;0.30;;;0.30;;
14098;SDS011;7126;48.458;7.930;2023-03-17T00:30:15;0.20;;;0.20;;
14098;SDS011;7126;48.458;7.930;2023-03-17T00:32:41;0.47;;;0.47;;
14098;SDS011;7126;48.458;7.930;2023-03-17T00:35:16;0.10;;;0.10;;
14098;SDS011;7126;48.458;7.930;2023-03-17T00:37:44;0.28;;;0.28;;
14098;SDS011;7126;48.458;7.930;2023-03-17T00:40:14;0.20;;;0.20;;
14098;SDS011;7126;48.458;7.930;2023-03-17T00:42:40;0.32;;;0.32;;
14098;SDS011;7126;48.458;7.930;2023-03-17T00:45:06;0.25;;;0.25;;
14098;SDS011;7126;48.458;7.930;2023-03-17T00:47:32;0.40;;;0.40;;
14098;SDS011;7126;48.458;7.930;2023-03-17T00:49:58;0.10;;;0.10;;
14098;SDS011;7126;48.458;7.930;2023-03-17T00:52:23;0.30;;;0.20;;
14098;SDS011;7126;48.458;7.930;2023-03-17T00:54:51;0.30;;;0.30;;
14098;SDS011;7126;48.458;7.930;2023-03-17T00:57:16;0.22;;;0.22;;
14098;SDS011;7126;48.458;7.930;2023-03-17T00:59:42;0.20;;;0.20;;
14098;SDS011;7126;48.458;7.930;2023-03-17T01:02:11;0.10;;;0.10;;
14098;SDS011;7126;48.458;7.930;2023-03-17T01:04:37;0.32;;;0.32;;
14098;SDS011;7126;48.458;7.930;2023-03-17T01:07:04;0.35;;;0.35;;
14098;SDS011;7126;48.458;7.930;2023-03-17T01:09:29;0.50;;;0.50;;
14098;SDS011;7126;48.458;7.930;2023-03-17T01:11:55;0.13;;;0.13;;
14098;SDS011;7126;48.458;7.930;2023-03-17T01:14:21;0.30;;;0.30;;
14098;SDS011;7126;48.458;7.930;2023-03-17T01:16:47;0.35;;;0.35;;
14098;SDS011;7126;48.458;7.930;2023-03-17T01:19:12;0.30;;;0.30;;
14098;SDS011;7126;48.458;7.930;2023-03-17T01:21:39;0.10;;;0.10;;
14098;SDS011;7126;48.458;7.930;2023-03-17T01:24:05;0.30;;;0.30;;
14098;SDS011;7126;48.458;7.930;2023-03-17T01:26:32;0.10;;;0.10;;
14098;SDS011;7126;48.458;7.930;2023-03-17T01:28:58;0.20;;;0.20;;
14098;SDS011;7126;48.458;7.930;2023-03-17T01:31:23;0.32;;;0.32;;
14098;SDS011;7126;48.458;7.930;2023-03-17T01:33:50;0.80;;;0.65;;
14098;SDS011;7126;48.458;7.930;2023-03-17T01:36:16;0.45;;;0.45;;
14098;SDS011;7126;48.458;7.930;2023-03-17T01:38:42;0.50;;;0.50;;
14098;SDS011;7126;48.458;7.930;2023-03-17T01:41:08;0.25;;;0.25;;
14098;SDS011;7126;48.458;7.930;2023-03-17T01:43:34;0.35;;;0.35;;
14098;SDS011;7126;48.458;7.930;2023-03-17T01:46:21;0.15;;;0.15;;
14098;SDS011;7126;48.458;7.930;2023-03-17T01:51:45;0.28;;;0.28;;
14098;SDS011;7126;48.458;7.930;2023-03-17T01:57:02;0.20;;;0.20;;
14098;SDS011;7126;48.458;7.930;2023-03-17T01:59:35;0.17;;;0.17;;
14098;SDS011;7126;48.458;7.930;2023-03-17T02:02:08;0.20;;;0.20;;
14098;SDS011;7126;48.458;7.930;2023-03-17T02:04:35;0.60;;;0.60;;
14098;SDS011;7126;48.458;7.930;2023-03-17T02:07:02;0.32;;;0.13;;
14098;SDS011;7126;48.458;7.930;2023-03-17T02:09:29;0.47;;;0.30;;
14098;SDS011;7126;48.458;7.930;2023-03-17T02:11:56;0.10;;;0.10;;
14098;SDS011;7126;48.458;7.930;2023-03-17T02:14:24;0.85;;;0.40;;
14098;SDS011;7126;48.458;7.930;2023-03-17T02:16:50;0.10;;;0.10;;
14098;SDS011;7126;48.458;7.930;2023-03-17T02:19:16;0.28;;;0.28;;
14098;SDS011;7126;48.458;7.930;2023-03-17T02:21:45;0.35;;;0.35;;
14098;SDS011;7126;48.458;7.930;2023-03-17T02:24:15;0.28;;;0.20;;
14098;SDS011;7126;48.458;7.930;2023-03-17T02:26:46;0.20;;;0.20;;
14098;SDS011;7126;48.458;7.930;2023-03-17T02:29:15;0.17;;;0.17;;
14098;SDS011;7126;48.458;7.930;2023-03-17T02:31:43;0.38;;;0.38;;
14098;SDS011;7126;48.458;7.930;2023-03-17T02:34:09;0.03;;;0.03;;
14098;SDS011;7126;48.458;7.930;2023-03-17T02:36:35;0.40;;;0.40;;
14098;SDS011;7126;48.458;7.930;2023-03-17T02:39:01;0.30;;;0.30;;
14098;SDS011;7126;48.458;7.930;2023-03-17T02:41:28;0.50;;;0.50;;
14098;SDS011;7126;48.458;7.930;2023-03-17T02:43:54;0.10;;;0.10;;
14098;SDS011;7126;48.458;7.930;2023-03-17T02:46:20;0.30;;;0.30;;
14098;SDS011;7126;48.458;7.930;2023-03-17T02:48:46;0.32;;;0.32;;
14098;SDS011;7126;48.458;7.930;2023-03-17T02:51:13;0.10;;;0.10;;
14098;SDS011;7126;48.458;7.930;2023-03-17T02:53:38;0.20;;;0.20;;
14098;SDS011;7126;48.458;7.930;2023-03-17T02:56:04;0.10;;;0.10;;
14098;SDS011;7126;48.458;7.930;2023-03-17T02:58:30;0.10;;;0.10;;
14098;SDS011;7126;48.458;7.930;2023-03-17T03:00:56;0.00;;;0.00;;
14098;SDS011;7126;48.458;7.930;2023-03-17T03:03:21;0.52;;;0.52;;
14098;SDS011;7126;48.458;7.930;2023-03-17T03:05:47;0.30;;;0.30;;
14098;SDS011;7126;48.458;7.930;2023-03-17T03:08:13;0.55;;;0.55;;
14098;SDS011;7126;48.458;7.930;2023-03-17T03:10:38;0.38;;;0.38;;
14098;SDS011;7126;48.458;7.930;2023-03-17T03:13:05;0.32;;;0.30;;
14098;SDS011;7126;48.458;7.930;2023-03-17T03:15:31;0.20;;;0.20;;
14098;SDS011;7126;48.458;7.930;2023-03-17T03:17:56;0.20;;;0.20;;
14098;SDS011;7126;48.458;7.930;2023-03-17T03:20:22;0.20;;;0.20;;
14098;SDS011;7126;48.458;7.930;2023-03-17T03:22:48;0.43;;;0.20;;
14098;SDS011;7126;48.458;7.930;2023-03-17T03:25:13;0.30;;;0.30;;
14098;SDS011;7126;48.458;7.930;2023-03-17T03:27:40;0.13;;;0.13;;
14098;SDS011;7126;48.458;7.930;2023-03-17T03:30:05;0.20;;;0.20;;
14098;SDS011;7126;48.458;7.930;2023-03-17T03:32:32;0.47;;;0.47;;
14098;SDS011;7126;48.458;7.930;2023-03-17T03:34:58;0.35;;;0.35;;
14098;SDS011;7126;48.458;7.930;2023-03-17T03:37:24;0.22;;;0.22;;
14098;SDS011;7126;48.458;7.930;2023-03-17T03:39:49;0.20;;;0.20;;
14098;SDS011;7126;48.458;7.930;2023-03-17T03:42:16;0.20;;;0.20;;
14098;SDS011;7126;48.458;7.930;2023-03-17T03:44:42;0.20;;;0.20;;
14098;SDS011;7126;48.458;7.930;2023-03-17T03:47:07;0.30;;;0.30;;
14098;SDS011;7126;48.458;7.930;2023-03-17T03:49:33;0.30;;;0.30;;
14098;SDS011;7126;48.458;7.930;2023-03-17T03:51:58;0.70;;;0.70;;
14098;SDS011;7126;48.458;7.930;2023-03-17T03:54:24;0.00;;;0.00;;
14098;SDS011;7126;48.458;7.930;2023-03-17T03:56:50;0.20;;;0.20;;
14098;SDS011;7126;48.458;7.930;2023-03-17T03:59:15;0.10;;;0.10;;
14098;SDS011;7126;48.458;7.930;2023-03-17T04:01:41;0.20;;;0.20;;
14098;SDS011;7126;48.458;7.930;2023-03-17T04:04:06;0.20;;;0.17;;
14098;SDS011;7126;48.458;7.930;2023-03-17T04:06:32;0.13;;;0.13;;
14098;SDS011;7126;48.458;7.930;2023-03-17T04:08:57;0.10;;;0.10;;
14098;SDS011;7126;48.458;7.930;2023-03-17T04:11:23;0.32;;;0.25;;
14098;SDS011;7126;48.458;7.930;2023-03-17T04:13:48;0.55;;;0.55;;
14098;SDS011;7126;48.458;7.930;2023-03-17T04:16:14;0.45;;;0.45;;
14098;SDS011;7126;48.458;7.930;2023-03-17T04:18:40;0.55;;;0.55;;
14098;SDS011;7126;48.458;7.930;2023-03-17T04:21:05;0.63;;;0.63;;
14098;SDS011;7126;48.458;7.930;2023-03-17T04:23:32;0.10;;;0.10;;
14098;SDS011;7126;48.458;7.930;2023-03-17T04:25:58;0.32;;;0.32;;
14098;SDS011;7126;48.458;7.930;2023-03-17T04:28:23;0.35;;;0.35;;
14098;SDS011;7126;48.458;7.930;2023-03-17T04:30:49;0.32;;;0.32;;
14098;SDS011;7126;48.458;7.930;2023-03-17T04:33:15;0.32;;;0.25;;
14098;SDS011;7126;48.458;7.930;2023-03-17T04:35:40;0.20;;;0.20;;
14098;SDS011;7126;48.458;7.930;2023-03-17T04:38:06;0.20;;;0.20;;
14098;SDS011;7126;48.458;7.930;2023-03-17T04:40:32;0.20;;;0.20;;
14098;SDS011;7126;48.458;7.930;2023-03-17T04:42:58;0.60;;;0.60;;
14098;SDS011;7126;48.458;7.930;2023-03-17T04:45:23;0.25;;;0.20;;
14098;SDS011;7126;48.458;7.930;2023-03-17T04:47:49;0.20;;;0.20;;
14098;SDS011;7126;48.458;7.930;2023-03-17T04:50:15;0.30;;;0.30;;
14098;SDS011;7126;48.458;7.930;2023-03-17T04:52:41;0.30;;;0.30;;
14098;SDS011;7126;48.458;7.930;2023-03-17T04:55:07;0.20;;;0.20;;
14098;SDS011;7126;48.458;7.930;2023-03-17T04:57:34;0.43;;;0.40;;
14098;SDS011;7126;48.458;7.930;2023-03-17T05:00:00;0.28;;;0.28;;
14098;SDS011;7126;48.458;7.930;2023-03-17T05:02:26;0.20;;;0.20;;
14098;SDS011;7126;48.458;7.930;2023-03-17T05:04:52;0.20;;;0.20;;
14098;SDS011;7126;48.458;7.930;2023-03-17T05:07:17;0.20;;;0.20;;
14098;SDS011;7126;48.458;7.930;2023-03-17T05:09:43;0.38;;;0.30;;
14098;SDS011;7126;48.458;7.930;2023-03-17T05:12:09;0.60;;;0.32;;
14098;SDS011;7126;48.458;7.930;2023-03-17T05:14:35;0.40;;;0.40;;
14098;SDS011;7126;48.458;7.930;2023-03-17T05:17:01;0.30;;;0.30;;
14098;SDS011;7126;48.458;7.930;2023-03-17T05:19:27;0.30;;;0.30;;
14098;SDS011;7126;48.458;7.930;2023-03-17T05:21:52;0.30;;;0.30;;
14098;SDS011;7126;48.458;7.930;2023-03-17T05:24:18;0.20;;;0.20;;
14098;SDS011;7126;48.458;7.930;2023-03-17T05:26:43;0.20;;;0.20;;
14098;SDS011;7126;48.458;7.930;2023-03-17T05:29:09;0.20;;;0.20;;
14098;SDS011;7126;48.458;7.930;2023-03-17T05:31:35;0.10;;;0.10;;
14098;SDS011;7126;48.458;7.930;2023-03-17T05:34:00;0.10;;;0.10;;
14098;SDS011;7126;48.458;7.930;2023-03-17T05:36:26;0.10;;;0.10;;
14098;SDS011;7126;48.458;7.930;2023-03-17T05:38:52;0.15;;;0.15;;
14098;SDS011;7126;48.458;7.930;2023-03-17T05:41:18;0.50;;;0.50;;
14098;SDS011;7126;48.458;7.930;2023-03-17T05:43:43;0.30;;;0.30;;
14098;SDS011;7126;48.458;7.930;2023-03-17T05:46:09;0.38;;;0.38;;
14098;SDS011;7126;48.458;7.930;2023-03-17T05:48:35;0.25;;;0.25;;
14098;SDS011;7126;48.458;7.930;2023-03-17T05:51:01;0.17;;;0.17;;
14098;SDS011;7126;48.458;7.930;2023-03-17T05:53:26;0.43;;;0.35;;
14098;SDS011;7126;48.458;7.930;2023-03-17T05:55:52;0.20;;;0.20;;
14098;SDS011;7126;48.458;7.930;2023-03-17T05:58:18;0.20;;;0.20;;
14098;SDS011;7126;48.458;7.930;2023-03-17T06:00:44;0.20;;;0.10;;
14098;SDS011;7126;48.458;7.930;2023-03-17T06:03:11;0.15;;;0.15;;
14098;SDS011;7126;48.458;7.930;2023-03-17T06:05:37;0.10;;;0.10;;
14098;SDS011;7126;48.458;7.930;2023-03-17T06:08:02;0.30;;;0.30;;
14098;SDS011;7126;48.458;7.930;2023-03-17T06:10:29;0.20;;;0.20;;
14098;SDS011;7126;48.458;7.930;2023-03-17T06:12:55;0.20;;;0.20;;
14098;SDS011;7126;48.458;7.930;2023-03-17T06:15:23;0.10;;;0.10;;
14098;SDS011;7126;48.458;7.930;2023-03-17T06:17:48;0.10;;;0.10;;
14098;SDS011;7126;48.458;7.930;2023-03-17T06:20:14;0.30;;;0.30;;
14098;SDS011;7126;48.458;7.930;2023-03-17T06:22:40;0.20;;;0.20;;
14098;SDS011;7126;48.458;7.930;2023-03-17T06:25:07;0.28;;;0.28;;
14098;SDS011;7126;48.458;7.930;2023-03-17T06:27:34;0.30;;;0.30;;
14098;SDS011;7126;48.458;7.930;2023-03-17T06:30:01;1.30;;;0.43;;
14098;SDS011;7126;48.458;7.930;2023-03-17T06:32:26;0.20;;;0.20;;
14098;SDS011;7126;48.458;7.930;2023-03-17T06:34:52;0.10;;;0.10;;
14098;SDS011;7126;48.458;7.930;2023-03-17T06:37:18;0.30;;;0.30;;
14098;SDS011;7126;48.458;7.930;2023-03-17T06:39:45;0.28;;;0.28;;
14098;SDS011;7126;48.458;7.930;2023-03-17T06:42:12;0.30;;;0.30;;
14098;SDS011;7126;48.458;7.930;2023-03-17T06:44:38;0.10;;;0.10;;
14098;SDS011;7126;48.458;7.930;2023-03-17T06:47:04;0.20;;;0.20;;
14098;SDS011;7126;48.458;7.930;2023-03-17T06:49:29;0.10;;;0.10;;
14098;SDS011;7126;48.458;7.930;2023-03-17T06:51:55;0.10;;;0.10;;
14098;SDS011;7126;48.458;7.930;2023-03-17T06:54:22;0.10;;;0.10;;
14098;SDS011;7126;48.458;7.930;2023-03-17T06:56:49;0.20;;;0.20;;
14098;SDS011;7126;48.458;7.930;2023-03-17T06:59:16;0.20;;;0.20;;
14098;SDS011;7126;48.458;7.930;2023-03-17T07:01:42;0.63;;;0.30;;
14098;SDS011;7126;48.458;7.930;2023-03-17T07:04:08;0.25;;;0.25;;
14098;SDS011;7126;48.458;7.930;2023-03-17T07:06:33;0.20;;;0.20;;
14098;SDS011;7126;48.458;7.930;2023-03-17T07:08:59;0.30;;;0.30;;
14098;SDS011;7126;48.458;7.930;2023-03-17T07:11:26;0.70;;;0.32;;
14098;SDS011;7126;48.458;7.930;2023-03-17T07:13:53;0.55;;;0.55;;
14098;SDS011;7126;48.458;7.930;2023-03-17T07:16:18;0.20;;;0.20;;
14098;SDS011;7126;48.458;7.930;2023-03-17T07:18:45;0.20;;;0.20;;
14098;SDS011;7126;48.458;7.930;2023-03-17T07:21:11;0.30;;;0.30;;
14098;SDS011;7126;48.458;7.930;2023-03-17T07:23:36;1.25;;;1.00;;
14098;SDS011;7126;48.458;7.930;2023-03-17T07:26:02;0.43;;;0.43;;
14098;SDS011;7126;48.458;7.930;2023-03-17T07:28:28;0.10;;;0.10;;
14098;SDS011;7126;48.458;7.930;2023-03-17T07:30:54;0.50;;;0.50;;
14098;SDS011;7126;48.458;7.930;2023-03-17T07:33:21;0.20;;;0.20;;
14098;SDS011;7126;48.458;7.930;2023-03-17T07:35:48;0.10;;;0.10;;
14098;SDS011;7126;48.458;7.930;2023-03-17T07:38:15;0.32;;;0.32;;
14098;SDS011;7126;48.458;7.930;2023-03-17T07:40:43;0.35;;;0.35;;
14098;SDS011;7126;48.458;7.930;2023-03-17T07:43:11;0.52;;;0.38;;
14098;SDS011;7126;48.458;7.930;2023-03-17T07:45:37;0.50;;;0.32;;
14098;SDS011;7126;48.458;7.930;2023-03-17T07:48:03;0.10;;;0.10;;
14098;SDS011;7126;48.458;7.930;2023-03-17T07:50:30;0.10;;;0.10;;
14098;SDS011;7126;48.458;7.930;2023-03-17T07:52:57;0.32;;;0.32;;
14098;SDS011;7126;48.458;7.930;2023-03-17T07:55:22;0.20;;;0.20;;
14098;SDS011;7126;48.458;7.930;2023-03-17T07:57:48;0.10;;;0.10;;
14098;SDS011;7126;48.458;7.930;2023-03-17T08:00:14;0.70;;;0.22;;
14098;SDS011;7126;48.458;7.930;2023-03-17T08:02:41;0.15;;;0.15;;
14098;SDS011;7126;48.458;7.930;2023-03-17T08:05:07;0.30;;;0.30;;
14098;SDS011;7126;48.458;7.930;2023-03-17T08:07:33;0.30;;;0.30;;
14098;SDS011;7126;48.458;7.930;2023-03-17T08:10:01;0.38;;;0.38;;
14098;SDS011;7126;48.458;7.930;2023-03-17T08:12:27;0.40;;;0.40;;
14098;SDS011;7126;48.458;7.930;2023-03-17T08:14:53;0.40;;;0.40;;
14098;SDS011;7126;48.458;7.930;2023-03-17T08:17:19;0.32;;;0.32;;
14098;SDS011;7126;48.458;7.930;2023-03-17T08:19:45;0.10;;;0.10;;
14098;SDS011;7126;48.458;7.930;2023-03-17T08:22:10;0.17;;;0.17;;
14098;SDS011;7126;48.458;7.930;2023-03-17T08:24:36;0.38;;;0.38;;
14098;SDS011;7126;48.458;7.930;2023-03-17T08:27:03;0.28;;;0.28;;
14098;SDS011;7126;48.458;7.930;2023-03-17T08:29:29;0.13;;;0.13;;
14098;SDS011;7126;48.458;7.930;2023-03-17T08:31:55;0.40;;;0.40;;
14098;SDS011;7126;48.458;7.930;2023-03-17T08:34:21;0.65;;;0.20;;
14098;SDS011;7126;48.458;7.930;2023-03-17T08:36:48;0.10;;;0.10;;
14098;SDS011;7126;48.458;7.930;2023-03-17T08:39:15;0.52;;;0.38;;
14098;SDS011;7126;48.458;7.930;2023-03-17T08:41:41;0.40;;;0.40;;
14098;SDS011;7126;48.458;7.930;2023-03-17T08:44:07;0.40;;;0.40;;
14098;SDS011;7126;48.458;7.930;2023-03-17T08:46:33;0.50;;;0.50;;
14098;SDS011;7126;48.458;7.930;2023-03-17T08:48:59;0.32;;;0.32;;
14098;SDS011;7126;48.458;7.930;2023-03-17T08:51:27;0.20;;;0.20;;
14098;SDS011;7126;48.458;7.930;2023-03-17T08:53:55;0.60;;;0.60;;
14098;SDS011;7126;48.458;7.930;2023-03-17T08:56:21;0.85;;;0.77;;
14098;SDS011;7126;48.458;7.930;2023-03-17T08:58:47;0.35;;;0.35;;
14098;SDS011;7126;48.458;7.930;2023-03-17T09:01:14;0.20;;;0.20;;
14098;SDS011;7126;48.458;7.930;2023-03-17T09:03:40;0.47;;;0.47;;
14098;SDS011;7126;48.458;7.930;2023-03-17T09:06:06;0.40;;;0.40;;
14098;SDS011;7126;48.458;7.930;2023-03-17T09:08:35;0.47;;;0.47;;
14098;SDS011;7126;48.458;7.930;2023-03-17T09:11:03;0.28;;;0.28;;
14098;SDS011;7126;48.458;7.930;2023-03-17T09:13:30;0.40;;;0.40;;
14098;SDS011;7126;48.458;7.930;2023-03-17T09:15:57;0.50;;;0.50;;
14098;SDS011;7126;48.458;7.930;2023-03-17T09:18:23;0.40;;;0.40;;
14098;SDS011;7126;48.458;7.930;2023-03-17T09:20:49;0.55;;;0.55;;
14098;SDS011;7126;48.458;7.930;2023-03-17T09:23:14;1.13;;;1.13;;
14098;SDS011;7126;48.458;7.930;2023-03-17T09:25:40;0.50;;;0.50;;
14098;SDS011;7126;48.458;7.930;2023-03-17T09:28:09;0.68;;;0.68;;
14098;SDS011;7126;48.458;7.930;2023-03-17T09:30:35;0.75;;;0.75;;
14098;SDS011;7126;48.458;7.930;2023-03-17T09:33:01;0.60;;;0.60;;
14098;SDS011;7126;48.458;7.930;2023-03-17T09:35:28;1.02;;;1.02;;
14098;SDS011;7126;48.458;7.930;2023-03-17T09:37:55;0.70;;;0.70;;
14098;SDS011;7126;48.458;7.930;2023-03-17T09:40:21;0.93;;;0.93;;
14098;SDS011;7126;48.458;7.930;2023-03-17T09:45:45;0.60;;;0.60;;
14098;SDS011;7126;48.458;7.930;2023-03-17T09:48:27;0.73;;;0.73;;
14098;SDS011;7126;48.458;7.930;2023-03-17T09:51:00;0.95;;;0.95;;
14098;SDS011;7126;48.458;7.930;2023-03-17T09:53:31;0.68;;;0.68;;
14098;SDS011;7126;48.458;7.930;2023-03-17T09:56:18;0.43;;;0.43;;
14098;SDS011;7126;48.458;7.930;2023-03-17T09:58:49;0.70;;;0.70;;
14098;SDS011;7126;48.458;7.930;2023-03-17T10:01:22;0.65;;;0.65;;
14098;SDS011;7126;48.458;7.930;2023-03-17T10:03:48;0.60;;;0.60;;
14098;SDS011;7126;48.458;7.930;2023-03-17T10:09:24;0.80;;;0.80;;
14098;SDS011;7126;48.458;7.930;2023-03-17T10:15:00;0.82;;;0.82;;
14098;SDS011;7126;48.458;7.930;2023-03-17T10:17:39;0.70;;;0.70;;
14098;SDS011;7126;48.458;7.930;2023-03-17T10:22:56;0.80;;;0.80;;
14098;SDS011;7126;48.458;7.930;2023-03-17T10:25:27;0.98;;;0.98;;
14098;SDS011;7126;48.458;7.930;2023-03-17T10:30:54;1.13;;;0.55;;
14098;SDS011;7126;48.458;7.930;2023-03-17T10:33:41;0.90;;;0.90;;
14098;SDS011;7126;48.458;7.930;2023-03-17T10:36:13;0.38;;;0.38;;
14098;SDS011;7126;48.458;7.930;2023-03-17T10:38:47;0.63;;;0.63;;
14098;SDS011;7126;48.458;7.930;2023-03-17T10:41:16;1.30;;;1.30;;
14098;SDS011;7126;48.458;7.930;2023-03-17T10:43:45;0.75;;;0.75;;
14098;SDS011;7126;48.458;7.930;2023-03-17T10:46:21;0.68;;;0.68;;
14098;SDS011;7126;48.458;7.930;2023-03-17T10:48:50;1.45;;;1.35;;
14098;SDS011;7126;48.458;7.930;2023-03-17T10:51:41;0.57;;;0.57;;
14098;SDS011;7126;48.458;7.930;2023-03-17T10:54:15;0.60;;;0.60;;
14098;SDS011;7126;48.458;7.930;2023-03-17T10:56:42;0.80;;;0.80;;
14098;SDS011;7126;48.458;7.930;2023-03-17T10:59:17;1.20;;;0.90;;
14098;SDS011;7126;48.458;7.930;2023-03-17T11:01:50;1.75;;;1.65;;
14098;SDS011;7126;48.458;7.930;2023-03-17T11:07:05;0.95;;;0.90;;
14098;SDS011;7126;48.458;7.930;2023-03-17T11:09:36;0.80;;;0.80;;
14098;SDS011;7126;48.458;7.930;2023-03-17T11:12:03;0.45;;;0.45;;
14098;SDS011;7126;48.458;7.930;2023-03-17T11:14:31;0.73;;;0.73;;
14098;SDS011;7126;48.458;7.930;2023-03-17T11:16:57;0.63;;;0.63;;
14098;SDS011;7126;48.458;7.930;2023-03-17T11:22:25;1.33;;;1.17;;
14098;SDS011;7126;48.458;7.930;2023-03-17T11:25:04;1.00;;;1.00;;
14098;SDS011;7126;48.458;7.930;2023-03-17T11:27:58;0.70;;;0.70;;
14098;SDS011;7126;48.458;7.930;2023-03-17T11:30:34;0.57;;;0.57;;
14098;SDS011;7126;48.458;7.930;2023-03-17T11:33:25;0.70;;;0.70;;
14098;SDS011;7126;48.458;7.930;2023-03-17T11:36:13;0.85;;;0.85;;
14098;SDS011;7126;48.458;7.930;2023-03-17T11:39:24;0.77;;;0.77;;
14098;SDS011;7126;48.458;7.930;2023-03-17T11:49:36;1.10;;;0.80;;
14098;SDS011;7126;48.458;7.930;2023-03-17T11:52:18;0.90;;;0.90;;
14098;SDS011;7126;48.458;7.930;2023-03-17T11:57:45;0.80;;;0.80;;
14098;SDS011;7126;48.458;7.930;2023-03-17T12:00:17;0.65;;;0.65;;
14098;SDS011;7126;48.458;7.930;2023-03-17T12:05:41;0.55;;;0.55;;
14098;SDS011;7126;48.458;7.930;2023-03-17T12:08:12;0.80;;;0.80;;
14098;SDS011;7126;48.458;7.930;2023-03-17T12:10:43;0.85;;;0.70;;
14098;SDS011;7126;48.458;7.930;2023-03-17T12:13:15;0.80;;;0.80;;
14098;SDS011;7126;48.458;7.930;2023-03-17T12:15:49;0.70;;;0.70;;
14098;SDS011;7126;48.458;7.930;2023-03-17T12:18:20;0.57;;;0.57;;
14098;SDS011;7126;48.458;7.930;2023-03-17T12:23:51;0.60;;;0.60;;
14098;SDS011;7126;48.458;7.930;2023-03-17T12:26:43;0.50;;;0.50;;
14098;SDS011;7126;48.458;7.930;2023-03-17T12:29:42;1.00;;;0.90;;
14098;SDS011;7126;48.458;7.930;2023-03-17T12:32:21;0.70;;;0.70;;
14098;SDS011;7126;48.458;7.930;2023-03-17T12:35:22;0.65;;;0.65;;
14098;SDS011;7126;48.458;7.930;2023-03-17T12:37:55;0.85;;;0.70;;
14098;SDS011;7126;48.458;7.930;2023-03-17T12:40:25;4.28;;;0.50;;
14098;SDS011;7126;48.458;7.930;2023-03-17T12:48:44;1.10;;;1.08;;
14098;SDS011;7126;48.458;7.930;2023-03-17T12:54:11;0.88;;;0.88;;
14098;SDS011;7126;48.458;7.930;2023-03-17T12:56:51;1.38;;;0.77;;
14098;SDS011;7126;48.458;7.930;2023-03-17T12:59:23;1.02;;;0.93;;
14098;SDS011;7126;48.458;7.930;2023-03-17T13:01:57;0.65;;;0.65;;
14098;SDS011;7126;48.458;7.930;2023-03-17T13:04:34;0.85;;;0.85;;
14098;SDS011;7126;48.458;7.930;2023-03-17T13:07:10;0.75;;;0.75;;
14098;SDS011;7126;48.458;7.930;2023-03-17T13:12:33;0.70;;;0.70;;
14098;SDS011;7126;48.458;7.930;2023-03-17T13:20:49;0.73;;;0.73;;
14098;SDS011;7126;48.458;7.930;2023-03-17T13:23:16;0.65;;;0.45;;
14098;SDS011;7126;48.458;7.930;2023-03-17T13:25:50;0.65;;;0.65;;
14098;SDS011;7126;48.458;7.930;2023-03-17T13:33:54;1.30;;;0.65;;
14098;SDS011;7126;48.458;7.930;2023-03-17T13:36:24;0.77;;;0.70;;
14098;SDS011;7126;48.458;7.930;2023-03-17T13:39:17;0.50;;;0.50;;
14098;SDS011;7126;48.458;7.930;2023-03-17T13:45:06;0.68;;;0.68;;
14098;SDS011;7126;48.458;7.930;2023-03-17T13:47:40;0.63;;;0.63;;
14098;SDS011;7126;48.458;7.930;2023-03-17T13:50:10;0.70;;;0.70;;
14098;SDS011;7126;48.458;7.930;2023-03-17T13:52:45;0.95;;;0.95;;
14098;SDS011;7126;48.458;7.930;2023-03-17T13:57:42;0.90;;;0.90;;
14098;SDS011;7126;48.458;7.930;2023-03-17T14:02:50;0.98;;;0.98;;
14098;SDS011;7126;48.458;7.930;2023-03-17T14:05:50;0.75;;;0.75;;
14098;SDS011;7126;48.458;7.930;2023-03-17T14:08:20;0.73;;;0.73;;
14098;SDS011;7126;48.458;7.930;2023-03-17T14:10:58;0.90;;;0.90;;
14098;SDS011;7126;48.458;7.930;2023-03-17T14:13:26;0.77;;;0.77;;
14098;SDS011;7126;48.458;7.930;2023-03-17T14:16:03;0.40;;;0.40;;
14098;SDS011;7126;48.458;7.930;2023-03-17T14:18:41;1.23;;;1.17;;
14098;SDS011;7126;48.458;7.930;2023-03-17T14:21:21;0.82;;;0.82;;
14098;SDS011;7126;48.458;7.930;2023-03-17T14:23:54;0.73;;;0.73;;
14098;SDS011;7126;48.458;7.930;2023-03-17T14:26:22;0.63;;;0.63;;
14098;SDS011;7126;48.458;7.930;2023-03-17T14:28:50;0.63;;;0.63;;
14098;SDS011;7126;48.458;7.930;2023-03-17T14:31:19;0.70;;;0.70;;
14098;SDS011;7126;48.458;7.930;2023-03-17T14:33:54;0.50;;;0.50;;
14098;SDS011;7126;48.458;7.930;2023-03-17T14:36:21;1.60;;;0.80;;
14098;SDS011;7126;48.458;7.930;2023-03-17T14:38:52;0.68;;;0.68;;
14098;SDS011;7126;48.458;7.930;2023-03-17T14:41:20;0.60;;;0.60;;
14098;SDS011;7126;48.458;7.930;2023-03-17T14:43:55;0.32;;;0.32;;
14098;SDS011;7126;48.458;7.930;2023-03-17T14:46:23;0.65;;;0.65;;
14098;SDS011;7126;48.458;7.930;2023-03-17T14:49:14;0.50;;;0.50;;
14098;SDS011;7126;48.458;7.930;2023-03-17T14:51:46;0.95;;;0.95;;
14098;SDS011;7126;48.458;7.930;2023-03-17T14:54:15;2.20;;;1.00;;
14098;SDS011;7126;48.458;7.930;2023-03-17T14:57:21;0.70;;;0.70;;
14098;SDS011;7126;48.458;7.930;2023-03-17T14:59:54;0.85;;;0.75;;
14098;SDS011;7126;48.458;7.930;2023-03-17T15:02:34;0.65;;;0.65;;
14098;SDS011;7126;48.458;7.930;2023-03-17T15:07:49;0.73;;;0.73;;
14098;SDS011;7126;48.458;7.930;2023-03-17T15:10:16;0.60;;;0.60;;
14098;SDS011;7126;48.458;7.930;2023-03-17T15:12:48;0.50;;;0.50;;
14098;SDS011;7126;48.458;7.930;2023-03-17T15:15:24;0.65;;;0.65;;
14098;SDS011;7126;48.458;7.930;2023-03-17T15:17:55;0.73;;;0.73;;
14098;SDS011;7126;48.458;7.930;2023-03-17T15:20:23;0.77;;;0.60;;
14098;SDS011;7126;48.458;7.930;2023-03-17T15:22:59;0.70;;;0.70;;
14098;SDS011;7126;48.458;7.930;2023-03-17T15:25:32;0.68;;;0.68;;
14098;SDS011;7126;48.458;7.930;2023-03-17T15:28:22;0.55;;;0.50;;
14098;SDS011;7126;48.458;7.930;2023-03-17T15:30:57;0.32;;;0.32;;
14098;SDS011;7126;48.458;7.930;2023-03-17T15:33:35;0.68;;;0.68;;
14098;SDS011;7126;48.458;7.930;2023-03-17T15:36:03;0.50;;;0.50;;
14098;SDS011;7126;48.458;7.930;2023-03-17T15:38:29;0.68;;;0.68;;
14098;SDS011;7126;48.458;7.930;2023-03-17T15:40:55;0.85;;;0.77;;
14098;SDS011;7126;48.458;7.930;2023-03-17T15:43:21;0.57;;;0.57;;
14098;SDS011;7126;48.458;7.930;2023-03-17T15:45:53;0.52;;;0.52;;
14098;SDS011;7126;48.458;7.930;2023-03-17T15:48:23;1.10;;;0.60;;
14098;SDS011;7126;48.458;7.930;2023-03-17T15:50:52;0.50;;;0.50;;
14098;SDS011;7126;48.458;7.930;2023-03-17T15:53:19;0.47;;;0.47;;
14098;SDS011;7126;48.458;7.930;2023-03-17T15:55:45;0.55;;;0.55;;
14098;SDS011;7126;48.458;7.930;2023-03-17T15:58:11;0.40;;;0.40;;
14098;SDS011;7126;48.458;7.930;2023-03-17T16:00:36;0.52;;;0.52;;
14098;SDS011;7126;48.458;7.930;2023-03-17T16:03:04;0.47;;;0.47;;
14098;SDS011;7126;48.458;7.930;2023-03-17T16:05:33;0.50;;;0.50;;
14098;SDS011;7126;48.458;7.930;2023-03-17T16:07:59;0.57;;;0.57;;
14098;SDS011;7126;48.458;7.930;2023-03-17T16:10:26;0.47;;;0.47;;
14098;SDS011;7126;48.458;7.930;2023-03-17T16:12:53;0.40;;;0.40;;
14098;SDS011;7126;48.458;7.930;2023-03-17T16:15:20;0.30;;;0.30;;
14098;SDS011;7126;48.458;7.930;2023-03-17T16:17:48;0.50;;;0.50;;
14098;SDS011;7126;48.458;7.930;2023-03-17T16:22:50;0.30;;;0.30;;
14098;SDS011;7126;48.458;7.930;2023-03-17T16:25:21;0.35;;;0.35;;
14098;SDS011;7126;48.458;7.930;2023-03-17T16:27:48;0.60;;;0.60;;
14098;SDS011;7126;48.458;7.930;2023-03-17T16:30:19;0.20;;;0.20;;